SEEKD EDXW-EDXW
Flight info
| Callsign | SEEKD |
|---|---|
| Flight time | 0h 4m |
| Altitude | |
| Route | |
| Aircraft | BE H35 |
Departure
| Time | 2026-04-21 12:53 |
|---|---|
| Airport | Westerland Sylt Airport (EDXW) |
Arrival
| Time | 2026-04-21 12:57 |
|---|---|
| Airport | Westerland Sylt Airport (EDXW) |
| Time | Latitude | Longitude | Altitude | Speed | Heading |
|---|---|---|---|---|---|
| 2026-04-21 12:41 | 54.92098 | 8.33871 | 43 ft | 0 kts | 355° |
| 2026-04-21 12:44 | 54.92069 | 8.33824 | 41 ft | 13 kts | 204° |
| 2026-04-21 12:44 | 54.92002 | 8.33745 | 38 ft | 16 kts | 229° |
| 2026-04-21 12:44 | 54.91963 | 8.33603 | 33 ft | 11 kts | 262° |
| 2026-04-21 12:44 | 54.91955 | 8.33488 | 30 ft | 9 kts | 262° |
| 2026-04-21 12:45 | 54.91929 | 8.33367 | 30 ft | 13 kts | 215° |
| 2026-04-21 12:45 | 54.91769 | 8.33498 | 31 ft | 48 kts | 141° |
| 2026-04-21 12:45 | 54.91468 | 8.33884 | 200 ft | 59 kts | 124° |
| 2026-04-21 12:45 | 54.91224 | 8.34536 | 435 ft | 62 kts | 90° |
| 2026-04-21 12:46 | 54.91485 | 8.35065 | 502 ft | 87 kts | 17° |
| 2026-04-21 12:46 | 54.92145 | 8.35270 | 562 ft | 105 kts | 358° |
| 2026-04-21 12:46 | 54.92765 | 8.34737 | 623 ft | 99 kts | 301° |
| 2026-04-21 12:46 | 54.92778 | 8.33608 | 540 ft | 92 kts | 243° |
| 2026-04-21 12:47 | 54.92255 | 8.33054 | 267 ft | 94 kts | 179° |
| 2026-04-21 12:47 | 54.91737 | 8.33536 | 41 ft | 78 kts | 145° |
| 2026-04-21 12:47 | 54.91358 | 8.34007 | 33 ft | 68 kts | 144° |
| 2026-04-21 12:47 | 54.91027 | 8.34526 | 180 ft | 65 kts | 121° |
| 2026-04-21 12:48 | 54.90973 | 8.35411 | 357 ft | 77 kts | 62° |
| 2026-04-21 12:48 | 54.91448 | 8.35799 | 461 ft | 84 kts | 355° |
| 2026-04-21 12:48 | 54.92037 | 8.35548 | 411 ft | 88 kts | 335° |
| 2026-04-21 12:48 | 54.92486 | 8.34873 | 414 ft | 84 kts | 306° |
| 2026-04-21 12:49 | 54.92682 | 8.34036 | 420 ft | 72 kts | 272° |
| 2026-04-21 12:49 | 54.92518 | 8.33258 | 361 ft | 69 kts | 221° |
| 2026-04-21 12:49 | 54.92221 | 8.33060 | 247 ft | 72 kts | 179° |
| 2026-04-21 12:49 | 54.91806 | 8.33461 | 76 ft | 65 kts | 147° |
| 2026-04-21 12:50 | 54.91396 | 8.33960 | 30 ft | 53 kts | 144° |
| 2026-04-21 12:50 | 54.91056 | 8.34391 | 105 ft | 63 kts | 143° |
| 2026-04-21 12:50 | 54.90802 | 8.35123 | 307 ft | 75 kts | 83° |
| 2026-04-21 12:50 | 54.91005 | 8.35623 | 454 ft | 81 kts | 27° |
| 2026-04-21 12:51 | 54.91621 | 8.35727 | 571 ft | 102 kts | 351° |
| 2026-04-21 12:51 | 54.92332 | 8.35425 | 587 ft | 96 kts | 336° |
| 2026-04-21 12:51 | 54.92769 | 8.34737 | 492 ft | 81 kts | 297° |
| 2026-04-21 12:51 | 54.92863 | 8.33815 | 375 ft | 79 kts | 260° |
| 2026-04-21 12:52 | 54.92545 | 8.33133 | 279 ft | 75 kts | 197° |
| 2026-04-21 12:52 | 54.92043 | 8.33197 | 135 ft | 72 kts | 156° |
| 2026-04-21 12:52 | 54.91671 | 8.33622 | 32 ft | 57 kts | 147° |
| 2026-04-21 12:52 | 54.91320 | 8.34079 | 121 ft | 74 kts | 141° |
| 2026-04-21 12:53 | 54.90933 | 8.34930 | 402 ft | 99 kts | 102° |
| 2026-04-21 12:53 | 54.91162 | 8.35971 | 741 ft | 100 kts | 30° |
| 2026-04-21 12:53 | 54.91866 | 8.36292 | 941 ft | 114 kts | 2° |
| 2026-04-21 12:53 | 54.92646 | 8.36011 | 909 ft | 119 kts | 330° |
| 2026-04-21 12:54 | 54.93175 | 8.34934 | 825 ft | 120 kts | 291° |
| 2026-04-21 12:54 | 54.93220 | 8.33631 | 626 ft | 95 kts | 250° |
| 2026-04-21 12:54 | 54.92787 | 8.32968 | 357 ft | 80 kts | 198° |
| 2026-04-21 12:54 | 54.92289 | 8.32998 | 183 ft | 67 kts | 163° |
| 2026-04-21 12:55 | 54.91904 | 8.33346 | 38 ft | 57 kts | 146° |
| 2026-04-21 12:55 | 54.91614 | 8.33696 | 31 ft | 59 kts | 144° |
| 2026-04-21 12:55 | 54.91232 | 8.34214 | 150 ft | 77 kts | 131° |
| 2026-04-21 12:55 | 54.91211 | 8.35055 | 415 ft | 75 kts | 44° |
| 2026-04-21 12:56 | 54.91752 | 8.35252 | 501 ft | 96 kts | 348° |
| 2026-04-21 12:56 | 54.92411 | 8.34908 | 469 ft | 99 kts | 336° |
| 2026-04-21 12:56 | 54.92833 | 8.34088 | 470 ft | 78 kts | 275° |
| 2026-04-21 12:56 | 54.92668 | 8.33353 | 337 ft | 64 kts | 228° |
| 2026-04-21 12:57 | 54.92302 | 8.33047 | 217 ft | 57 kts | 180° |
| 2026-04-21 12:57 | 54.91952 | 8.33269 | 82 ft | 50 kts | 151° |
| 2026-04-21 12:57 | 54.91695 | 8.33582 | 31 ft | 41 kts | 145° |
| 2026-04-21 12:57 | 54.91501 | 8.33818 | 30 ft | 30 kts | 146° |
| 2026-04-21 12:58 | 54.91379 | 8.33964 | 28 ft | 19 kts | 148° |
| 2026-04-21 12:58 | 54.91289 | 8.33937 | 30 ft | 19 kts | 238° |
| 2026-04-21 12:58 | 54.91218 | 8.33724 | 28 ft | 21 kts | 240° |
| 2026-04-21 12:58 | 54.91149 | 8.33518 | 27 ft | 22 kts | 240° |
| 2026-04-21 12:59 | 54.91096 | 8.33343 | 28 ft | 14 kts | 246° |
| 2026-04-21 12:59 | 54.91124 | 8.33184 | 29 ft | 19 kts | 346° |
| 2026-04-21 12:59 | 54.91241 | 8.33181 | 28 ft | 17 kts | 1° |
| 2026-04-21 12:59 | 54.91346 | 8.33248 | 23 ft | 16 kts | 9° |
| 2026-04-21 13:00 | 54.91468 | 8.33190 | 24 ft | 21 kts | 337° |
| 2026-04-21 13:00 | 54.91616 | 8.33178 | 29 ft | 22 kts | 0° |
| 2026-04-21 13:00 | 54.91771 | 8.33183 | 30 ft | 14 kts | 5° |
| 2026-04-21 13:00 | 54.91858 | 8.33233 | 30 ft | 16 kts | 30° |
| 2026-04-21 13:01 | 54.91938 | 8.33379 | 30 ft | 15 kts | 56° |
| 2026-04-21 13:01 | 54.91960 | 8.33581 | 32 ft | 15 kts | 81° |
| 2026-04-21 13:01 | 54.91998 | 8.33735 | 38 ft | 12 kts | 53° |
| 2026-04-21 13:01 | 54.92039 | 8.33828 | 41 ft | 9 kts | 16° |
| 2026-04-21 13:02 | 54.92095 | 8.33832 | 42 ft | 5 kts | 0° |
| 2026-04-21 13:02 | 54.92096 | 8.33832 | 42 ft | 0 kts | 0° |